Terminal Aerodrome Forecast
Issued by NWS Sterling, VA

Home | Current Version | Previous Version | Text Only | Print | Product List | Glossary On
Versions: 1 2 3 4 5 6 7 8 9 10 11 12 13 14 15 16 17 18 19 20 21 22 23 24 25
000
FTUS41 KLWX 261700 RRA
TAFBWI
TAF
KBWI 261742Z 2618/2724 21007KT P6SM SCT050
     FM270600 21006KT P6SM SCT050 BKN090
     FM271200 22005KT 6SM -SHRA VCTS SCT050CB BKN090
     FM271700 24010KT 5SM -SHRA VCTS BKN050CB BKN130
     FM272200 23005KT 5SM -SHRA VCTS BKN050CB BKN130=

USA.gov is the U.S. government's official web portal to all federal, state and local government web resources and services.